Terminal Aerodrome Forecast
Issued by NWS Topeka, KS

Home | Current Version | Previous Version | Text Only | Print | Product List | Glossary Off
Versions: 1 2 3 4 5 6 7 8 9 10 11 12 13 14 15 16

128
FTUS43 KTOP 161120
TAFTOP
TAF
KTOP 161120Z 1612/1712 06008KT 5SM -RA BR OVC004
     FM161600 VRB06KT 3SM BR VCSH OVC004
     FM170700 30008KT 5SM BR OVC007=

USA.gov is the U.S. government's official web portal to all federal, state and local government web resources and services.